createdAt,value
2023-05-25T00:00:19.298Z,11.70
2023-05-25T00:02:49.138Z,11.80
2023-05-25T00:05:18.475Z,11.90
2023-05-25T00:07:45.606Z,11.90
2023-05-25T00:10:13.724Z,11.90
2023-05-25T00:12:40.929Z,11.70
2023-05-25T05:01:24.260Z,8.30
2023-05-25T05:03:51.517Z,8.40
2023-05-25T05:06:18.530Z,8.40
2023-05-25T05:08:45.545Z,8.50
2023-05-25T05:11:12.460Z,8.50
2023-05-25T05:13:39.363Z,8.50
2023-05-25T05:16:06.677Z,8.70
2023-05-25T05:18:33.674Z,8.40
2023-05-25T05:21:00.585Z,8.40
2023-05-25T05:23:27.520Z,8.60
2023-05-25T05:25:54.430Z,8.70
2023-05-25T05:28:21.534Z,8.60
2023-05-25T05:30:48.567Z,8.60
2023-05-25T05:33:15.719Z,8.50
2023-05-25T05:35:42.941Z,8.60
2023-05-25T05:38:10.055Z,8.80
2023-05-25T05:40:37.052Z,8.90
2023-05-25T05:43:03.947Z,9.20
2023-05-25T05:45:30.962Z,9.30
2023-05-25T05:47:57.967Z,9.50
2023-05-25T05:50:24.909Z,9.50
2023-05-25T05:52:53.520Z,9.40
2023-05-25T05:55:21.116Z,9.30
2023-05-25T05:57:48.015Z,9.20
2023-05-25T06:00:16.276Z,9.30
2023-05-25T06:02:43.520Z,9.50
2023-05-25T06:05:10.649Z,9.70
2023-05-25T06:07:38.560Z,9.70
2023-05-25T06:10:06.669Z,9.80
2023-05-25T06:12:33.741Z,9.80
2023-05-25T06:15:01.212Z,9.90
2023-05-25T06:17:29.864Z,10.00
2023-05-25T06:19:56.850Z,10.00
2023-05-25T06:22:27.870Z,9.90
2023-05-25T06:24:55.121Z,9.70
2023-05-25T06:27:23.394Z,9.90
2023-05-25T06:29:50.348Z,10.10
2023-05-25T06:32:17.292Z,10.20
2023-05-25T06:34:44.287Z,10.10
2023-05-25T06:37:11.360Z,10.10
2023-05-25T06:39:40.068Z,10.00
2023-05-25T06:42:07.273Z,10.00
2023-05-25T06:44:34.678Z,10.00
2023-05-25T06:47:01.966Z,10.20
2023-05-25T06:49:29.235Z,10.30
2023-05-25T06:51:56.485Z,10.20
2023-05-25T06:54:25.224Z,10.40
2023-05-25T06:56:52.108Z,10.60
2023-05-25T06:59:19.178Z,10.60
2023-05-25T07:01:49.171Z,10.80
2023-05-25T07:04:16.208Z,11.00
2023-05-25T07:06:43.283Z,11.10
2023-05-25T07:09:10.482Z,11.20
2023-05-25T07:11:37.414Z,11.40
2023-05-25T07:14:04.423Z,11.60
2023-05-25T07:16:32.044Z,11.70
2023-05-25T07:19:00.317Z,11.80
2023-05-25T07:21:27.888Z,11.70
2023-05-25T07:23:54.960Z,11.80
2023-05-25T07:26:23.078Z,11.60
2023-05-25T07:28:50.065Z,11.60
2023-05-25T07:31:17.705Z,11.90
2023-05-25T07:33:44.942Z,12.00
2023-05-25T07:36:12.674Z,12.00
2023-05-25T07:38:40.025Z,11.80
2023-05-25T07:41:07.150Z,11.90
2023-05-25T07:43:34.131Z,12.00
2023-05-25T07:46:02.545Z,12.20
2023-05-25T07:48:29.521Z,12.30
2023-05-25T07:50:56.650Z,12.20
2023-05-25T07:53:23.765Z,12.30
2023-05-25T07:55:50.948Z,12.50
2023-05-25T07:58:17.919Z,12.40
2023-05-25T08:00:44.824Z,12.60
2023-05-25T08:03:12.239Z,12.70
2023-05-25T08:05:42.669Z,12.90
2023-05-25T08:08:10.640Z,13.20
2023-05-25T08:10:37.573Z,13.50
2023-05-25T08:13:04.497Z,13.50
2023-05-25T08:15:31.538Z,13.50
2023-05-25T08:17:58.474Z,13.10
2023-05-25T08:20:26.092Z,13.10
2023-05-25T08:22:53.680Z,13.20
2023-05-25T08:25:20.916Z,13.30
2023-05-25T08:27:48.658Z,13.50
2023-05-25T08:30:15.715Z,13.60
2023-05-25T08:32:42.756Z,13.70
2023-05-25T08:35:10.208Z,13.80
2023-05-25T08:37:37.158Z,13.70
2023-05-25T08:40:06.170Z,13.60
2023-05-25T08:42:33.164Z,13.30
2023-05-25T08:45:00.196Z,13.30
2023-05-25T08:47:32.426Z,13.30
2023-05-25T08:50:04.142Z,13.40
2023-05-25T08:52:33.671Z,13.40
2023-05-25T08:55:05.634Z,13.50
2023-05-25T08:57:37.417Z,13.60
2023-05-25T09:00:13.027Z,13.70
2023-05-25T09:03:10.975Z,13.80
2023-05-25T09:05:38.825Z,13.90
2023-05-25T09:08:10.440Z,13.90
2023-05-25T09:10:39.465Z,14.10
2023-05-25T09:13:20.558Z,14.10
2023-05-25T09:15:49.409Z,14.10
2023-05-25T09:18:16.418Z,14.00
2023-05-25T09:20:46.169Z,14.10
2023-05-25T09:23:14.965Z,14.30
2023-05-25T09:25:42.589Z,14.60
2023-05-25T09:30:39.926Z,14.70
2023-05-25T09:33:14.179Z,15.00
2023-05-25T09:35:41.432Z,15.20
2023-05-25T09:38:08.613Z,15.40
2023-05-25T09:40:38.104Z,15.40
2023-05-25T09:43:05.321Z,15.40
2023-05-25T09:45:32.422Z,15.50
2023-05-25T09:48:00.311Z,15.60
2023-05-25T09:50:30.891Z,15.30
2023-05-25T09:53:00.208Z,15.40
2023-05-25T09:55:40.466Z,15.30
2023-05-25T09:58:18.121Z,15.50
2023-05-25T10:00:46.711Z,15.60
2023-05-25T10:03:15.559Z,15.60
2023-05-25T10:05:42.768Z,15.30
2023-05-25T10:08:11.464Z,15.30
2023-05-25T10:10:40.018Z,15.60
2023-05-25T10:13:09.624Z,15.90
2023-05-25T10:15:40.262Z,15.80
2023-05-25T10:18:09.555Z,15.10
2023-05-25T10:20:37.258Z,14.70
2023-05-25T10:23:24.964Z,14.90
2023-05-25T10:25:58.698Z,15.10
2023-05-25T10:28:40.144Z,15.30
2023-05-25T10:31:09.351Z,15.10
2023-05-25T10:33:37.504Z,15.50
2023-05-25T10:38:36.256Z,15.40
2023-05-25T10:41:05.867Z,15.60
2023-05-25T10:43:33.058Z,16.20
2023-05-25T10:46:00.272Z,15.70
2023-05-25T10:48:45.189Z,15.90
2023-05-25T10:51:12.308Z,16.00
2023-05-25T10:53:39.398Z,15.90
2023-05-25T10:56:10.018Z,16.60
2023-05-25T10:58:44.992Z,17.00
2023-05-25T11:01:14.152Z,17.50
2023-05-25T11:03:47.201Z,17.20
2023-05-25T11:06:15.868Z,17.00
2023-05-25T11:08:59.626Z,17.00
2023-05-25T11:11:47.551Z,16.70
2023-05-25T11:14:28.319Z,16.80
2023-05-25T11:17:11.634Z,16.80
2023-05-25T11:19:50.749Z,17.30
2023-05-25T11:22:23.471Z,17.60
2023-05-25T11:24:52.292Z,17.80
2023-05-25T11:27:28.105Z,17.40
2023-05-25T11:29:57.855Z,17.70
2023-05-25T11:32:28.965Z,17.10
2023-05-25T11:34:57.508Z,17.00
2023-05-25T11:37:29.051Z,17.30
2023-05-25T11:39:56.464Z,17.80
2023-05-25T11:42:25.033Z,18.40
2023-05-25T11:44:52.217Z,18.10
2023-05-25T11:47:23.672Z,17.40
2023-05-25T11:49:50.892Z,17.30
2023-05-25T11:52:19.204Z,17.50
2023-05-25T11:54:46.738Z,17.80
2023-05-25T11:57:25.159Z,18.00
2023-05-25T11:59:54.699Z,18.70
2023-05-25T12:02:22.584Z,18.70
2023-05-25T12:04:55.236Z,19.20
2023-05-25T12:07:22.794Z,19.20
2023-05-25T12:09:49.888Z,18.90
2023-05-25T12:12:17.041Z,18.70
2023-05-25T12:14:48.663Z,19.00
2023-05-25T12:17:17.323Z,20.00
2023-05-25T12:19:45.153Z,20.10
2023-05-25T12:22:14.082Z,20.40
2023-05-25T12:24:41.591Z,20.50
2023-05-25T12:27:20.279Z,21.20
2023-05-25T12:29:48.422Z,21.40
2023-05-25T12:32:15.857Z,22.70
2023-05-25T12:34:44.049Z,23.60
2023-05-25T12:37:21.474Z,22.90
2023-05-25T12:39:50.953Z,23.40
2023-05-25T12:42:18.953Z,24.40
2023-05-25T12:44:46.767Z,24.90
2023-05-25T12:47:20.008Z,25.20
2023-05-25T12:49:54.013Z,25.60
2023-05-25T12:52:44.507Z,25.50
2023-05-25T12:55:30.507Z,25.80
2023-05-25T12:58:02.193Z,25.30
2023-05-25T13:00:37.458Z,25.80
2023-05-25T13:03:07.810Z,25.30
2023-05-25T13:05:36.940Z,25.10
2023-05-25T13:08:05.380Z,24.80
2023-05-25T13:10:33.518Z,24.90
2023-05-25T13:13:01.200Z,24.90
2023-05-25T13:15:29.111Z,25.20
2023-05-25T13:17:58.772Z,25.20
2023-05-25T13:20:27.110Z,25.60
2023-05-25T13:22:58.168Z,25.40
2023-05-25T13:25:27.770Z,24.00
2023-05-25T13:27:56.059Z,23.00
2023-05-25T13:30:23.437Z,23.20
2023-05-25T13:32:52.901Z,22.70
2023-05-25T13:35:37.083Z,22.60
2023-05-25T13:38:04.239Z,23.30
2023-05-25T13:40:31.265Z,24.20
2023-05-25T13:42:58.330Z,24.20
2023-05-25T13:45:25.270Z,23.40
2023-05-25T13:47:52.510Z,24.20
2023-05-25T13:50:20.127Z,25.10
2023-05-25T13:52:47.216Z,25.60
2023-05-25T13:55:14.273Z,24.30
2023-05-25T13:57:41.253Z,24.40
2023-05-25T14:00:09.504Z,25.20
2023-05-25T14:02:37.380Z,26.00
2023-05-25T14:05:04.970Z,25.90
2023-05-25T14:07:32.912Z,25.40
2023-05-25T14:10:00.456Z,25.90
2023-05-25T14:12:27.688Z,26.90
2023-05-25T14:14:54.814Z,27.20
2023-05-25T14:17:21.833Z,26.70
2023-05-25T14:19:48.805Z,27.30
2023-05-25T14:22:16.058Z,26.00
2023-05-25T14:24:43.018Z,23.20
2023-05-25T14:27:10.056Z,23.90
2023-05-25T14:29:37.291Z,24.00
2023-05-25T14:32:04.811Z,23.70
2023-05-25T14:34:31.819Z,23.50
2023-05-25T14:36:58.802Z,23.80
2023-05-25T14:39:26.701Z,24.60
2023-05-25T14:41:53.743Z,25.60
2023-05-25T14:44:20.750Z,26.20
2023-05-25T14:46:48.075Z,25.20
2023-05-25T14:49:16.939Z,25.30
2023-05-25T14:51:44.297Z,25.20
2023-05-25T14:54:13.760Z,25.30
2023-05-25T14:56:40.834Z,25.70
2023-05-25T14:59:08.039Z,25.80
2023-05-25T15:01:35.497Z,26.30
2023-05-25T15:04:03.056Z,26.90
2023-05-25T15:06:30.269Z,28.00
2023-05-25T15:08:57.229Z,28.30
2023-05-25T15:11:24.986Z,27.50
2023-05-25T15:13:51.975Z,27.00
2023-05-25T15:16:19.002Z,27.00
2023-05-25T15:18:46.140Z,27.20
2023-05-25T15:21:13.127Z,27.40
2023-05-25T15:23:40.089Z,27.50
2023-05-25T15:26:08.278Z,28.20
2023-05-25T15:28:35.525Z,28.40
2023-05-25T15:31:03.382Z,28.10
2023-05-25T15:33:48.527Z,27.20
2023-05-25T15:36:19.049Z,27.30
2023-05-25T15:38:49.450Z,28.00
2023-05-25T15:41:17.487Z,26.50
2023-05-25T15:43:58.418Z,25.00
2023-05-25T15:46:26.008Z,25.20
2023-05-25T15:48:53.849Z,25.80
2023-05-25T15:51:21.347Z,26.40
2023-05-25T15:53:48.474Z,26.60
2023-05-25T15:56:15.573Z,26.90
2023-05-25T15:58:42.562Z,25.80
2023-05-25T16:01:10.755Z,26.00
2023-05-25T16:03:39.503Z,25.80
2023-05-25T16:06:06.725Z,25.00
2023-05-25T16:08:33.699Z,24.40
2023-05-25T16:11:00.685Z,23.90
2023-05-25T16:13:27.682Z,24.30
2023-05-25T16:15:54.704Z,25.30
2023-05-25T16:18:21.660Z,26.50
2023-05-25T16:20:55.819Z,26.90
2023-05-25T16:23:23.591Z,26.90
2023-05-25T16:25:50.995Z,26.50
2023-05-25T16:28:18.235Z,26.80
2023-05-25T16:30:45.480Z,27.30
2023-05-25T16:33:12.646Z,27.40
2023-05-25T16:35:39.706Z,26.90
2023-05-25T16:38:06.731Z,25.50
2023-05-25T16:40:34.993Z,25.30
2023-05-25T16:43:02.017Z,25.20
2023-05-25T16:45:29.079Z,25.00
2023-05-25T16:47:56.147Z,25.70
2023-05-25T16:50:23.223Z,24.90
2023-05-25T16:52:50.172Z,24.80
2023-05-25T16:55:17.119Z,25.20
2023-05-25T16:57:44.195Z,25.80
2023-05-25T17:00:11.860Z,25.60
2023-05-25T17:02:38.966Z,25.30
2023-05-25T17:05:06.974Z,25.50
2023-05-25T17:07:34.455Z,26.10
2023-05-25T17:10:01.708Z,26.20
2023-05-25T17:12:28.786Z,25.50
2023-05-25T17:14:55.772Z,24.90
2023-05-25T17:17:22.965Z,25.00
2023-05-25T17:19:49.953Z,25.00
2023-05-25T17:22:17.213Z,25.20
2023-05-25T17:24:44.351Z,25.40
2023-05-25T17:27:11.491Z,25.60
2023-05-25T17:29:38.461Z,25.90
2023-05-25T17:32:06.013Z,25.90
2023-05-25T17:34:33.457Z,25.80
2023-05-25T17:37:00.494Z,25.60
2023-05-25T17:39:27.442Z,25.50
2023-05-25T17:41:54.410Z,25.30
2023-05-25T17:44:21.400Z,25.40
2023-05-25T17:46:48.400Z,25.00
2023-05-25T17:49:15.325Z,24.60
2023-05-25T17:51:42.216Z,24.40
2023-05-25T17:54:09.163Z,24.20
2023-05-25T17:56:36.754Z,24.00
2023-05-25T17:59:03.775Z,23.80
2023-05-25T18:01:30.926Z,23.60
2023-05-25T18:03:58.794Z,23.80
2023-05-25T18:06:27.739Z,23.80
2023-05-25T18:08:56.191Z,23.30
2023-05-25T18:11:23.448Z,23.20
2023-05-25T18:13:50.801Z,23.20
2023-05-25T18:16:18.269Z,22.70
2023-05-25T18:18:45.619Z,22.50
2023-05-25T18:21:12.579Z,22.60
2023-05-25T18:23:39.675Z,22.50
2023-05-25T18:26:06.720Z,22.10
2023-05-25T18:28:33.756Z,21.80
2023-05-25T18:31:00.812Z,21.70
2023-05-25T18:33:27.784Z,21.70
2023-05-25T18:35:54.743Z,21.80
2023-05-25T18:38:21.680Z,21.60
2023-05-25T18:40:48.669Z,21.40
2023-05-25T18:43:16.066Z,21.30
2023-05-25T18:45:43.105Z,21.10
2023-05-25T18:48:10.645Z,21.00
2023-05-25T18:50:39.386Z,20.90
2023-05-25T18:53:09.801Z,20.80
2023-05-25T18:55:37.801Z,20.60
2023-05-25T18:58:04.859Z,20.60
2023-05-25T19:00:32.232Z,20.50
2023-05-25T19:02:59.298Z,20.30
2023-05-25T19:05:26.545Z,20.20
2023-05-25T19:07:59.215Z,19.80
2023-05-25T19:10:27.352Z,19.30
2023-05-25T19:12:54.416Z,19.20
2023-05-25T19:15:21.573Z,19.20
2023-05-25T19:17:48.767Z,19.10
2023-05-25T19:20:16.100Z,19.10
2023-05-25T19:22:43.520Z,18.90
2023-05-25T19:25:10.736Z,18.70
2023-05-25T19:27:37.785Z,18.60
2023-05-25T19:30:05.078Z,18.50
2023-05-25T19:32:32.412Z,18.40
2023-05-25T19:34:59.421Z,18.40
2023-05-25T19:37:27.123Z,18.40
2023-05-25T19:39:54.501Z,18.10
2023-05-25T19:42:21.743Z,17.60
2023-05-25T19:44:48.745Z,17.40
2023-05-25T19:47:15.817Z,17.20
2023-05-25T19:49:42.921Z,17.00
2023-05-25T19:52:10.424Z,16.80
2023-05-25T19:54:39.181Z,17.00
2023-05-25T19:57:06.831Z,16.90
2023-05-25T19:59:34.334Z,16.80
2023-05-25T20:02:01.278Z,16.80
2023-05-25T20:04:28.202Z,16.70
2023-05-25T20:06:55.295Z,16.20
2023-05-25T20:09:30.263Z,15.80
2023-05-25T20:11:58.585Z,15.80
2023-05-25T20:14:26.429Z,15.80
2023-05-25T20:16:56.209Z,15.70
2023-05-25T20:19:24.906Z,15.70
2023-05-25T20:21:52.296Z,15.80
2023-05-25T20:24:19.264Z,15.80
2023-05-25T20:26:46.348Z,15.90
2023-05-25T20:29:13.484Z,15.90
2023-05-25T20:31:40.971Z,16.00
2023-05-25T20:34:07.896Z,16.00
2023-05-25T20:36:35.302Z,15.80
2023-05-25T20:39:03.352Z,16.00
2023-05-25T20:41:30.501Z,16.10
2023-05-25T20:43:58.327Z,16.10
2023-05-25T20:46:26.171Z,16.20
2023-05-25T20:48:57.354Z,16.30
2023-05-25T20:51:24.870Z,16.30
2023-05-25T20:53:51.861Z,16.30
2023-05-25T20:56:18.854Z,16.30
2023-05-25T20:58:47.174Z,16.30
2023-05-25T21:01:15.460Z,16.30
2023-05-25T21:03:42.516Z,16.40
2023-05-25T21:06:09.537Z,16.40
2023-05-25T21:08:36.952Z,16.40
2023-05-25T21:11:04.066Z,16.40
2023-05-25T21:13:31.410Z,15.90
2023-05-25T21:15:58.814Z,15.50
2023-05-25T21:18:26.100Z,15.30
2023-05-25T21:20:53.304Z,15.10
2023-05-25T21:23:20.306Z,15.00
2023-05-25T21:25:47.486Z,14.90
2023-05-25T21:28:15.120Z,14.80
2023-05-25T21:30:42.180Z,14.60
2023-05-25T21:33:09.619Z,14.70
2023-05-25T21:35:36.660Z,14.70
2023-05-25T21:38:04.058Z,14.70
2023-05-25T21:40:32.034Z,14.70
2023-05-25T21:42:59.056Z,14.80
2023-05-25T21:45:26.054Z,14.60
2023-05-25T21:47:53.128Z,14.60
2023-05-25T21:50:20.665Z,14.60
2023-05-25T21:52:47.598Z,14.50
2023-05-25T21:55:14.704Z,14.50
2023-05-25T21:57:43.004Z,14.30
2023-05-25T22:00:12.769Z,14.30
2023-05-25T22:02:40.887Z,14.00
2023-05-25T22:05:08.139Z,13.80
2023-05-25T22:07:35.314Z,13.70
2023-05-25T22:10:02.412Z,13.70
2023-05-25T22:12:29.401Z,13.70
2023-05-25T22:14:56.352Z,13.60
2023-05-25T22:17:23.364Z,13.70
2023-05-25T22:20:03.319Z,14.00
2023-05-25T22:22:34.702Z,14.20
2023-05-25T22:25:01.874Z,14.30
2023-05-25T22:27:28.814Z,14.30
2023-05-25T22:29:56.033Z,14.30
2023-05-25T22:32:23.353Z,14.30
2023-05-25T22:34:50.622Z,14.10
2023-05-25T22:37:18.698Z,13.90
2023-05-25T22:39:45.720Z,13.80
2023-05-25T22:42:12.900Z,13.70
2023-05-25T22:44:39.984Z,13.80
2023-05-25T22:47:07.384Z,13.90
2023-05-25T22:49:41.290Z,13.90
2023-05-25T22:52:12.304Z,14.00
2023-05-25T22:54:39.363Z,13.80
2023-05-25T22:57:08.303Z,14.00
2023-05-25T22:59:36.036Z,13.90
2023-05-25T23:02:03.375Z,13.90
2023-05-25T23:04:30.369Z,13.90
2023-05-25T23:06:57.850Z,13.90
2023-05-25T23:09:25.051Z,13.70
2023-05-25T23:11:52.217Z,13.90
2023-05-25T23:14:20.846Z,13.90
2023-05-25T23:16:50.629Z,13.80
2023-05-25T23:19:18.148Z,13.90
2023-05-25T23:21:45.219Z,13.70
2023-05-25T23:24:12.177Z,13.60
2023-05-25T23:26:39.132Z,13.50
2023-05-25T23:29:06.216Z,13.70
2023-05-25T23:31:34.007Z,13.60
2023-05-25T23:34:01.345Z,13.50
2023-05-25T23:36:28.602Z,13.40
2023-05-25T23:38:56.064Z,13.30
2023-05-25T23:41:23.528Z,13.30
2023-05-25T23:43:50.769Z,13.50
2023-05-25T23:46:18.236Z,13.50
2023-05-25T23:48:46.045Z,13.30
2023-05-25T23:51:13.714Z,13.20
2023-05-25T23:53:40.665Z,13.30
2023-05-25T23:56:07.880Z,13.30
2023-05-25T23:58:34.966Z,13.40
